Time;durP1;ratioP1;P1;durP2;ratioP2;P2;SDS_P1;SDS_P2;PMS_P1;PMS_P2;Temp;Humidity;BMP_temperature;BMP_pressure;BME280_temperature;BME280_humidity;BME280_pressure;Samples;Min_cycle;Max_cycle;Signal;HPM_P1;HPM_P2
2022/03/24 00:02:37;;;;;;;9.88;5.38;;;;;;;;;;20922796;28;20448;-57
2022/03/24 00:12:39;;;;;;;6.75;4.20;;;;;;;;;;20923383;28;20492;-59
2022/03/24 00:22:42;;;;;;;6.25;4.25;;;;;;;;;;20921394;28;20147;-57
2022/03/24 00:32:44;;;;;;;8.60;4.20;;;;;;;;;;20920799;28;20163;-56
2022/03/24 00:42:47;;;;;;;12.18;4.93;;;;;;;;;;20920776;28;20068;-58
2022/03/24 00:52:49;;;;;;;9.65;4.18;;;;;;;;;;20919590;28;20041;-58
2022/03/24 01:02:53;;;;;;;6.57;3.35;;;;;;;;;;20918890;28;20053;-59
2022/03/24 01:12:59;;;;;;;6.20;4.00;;;;;;;;;;20918582;28;20045;-60
2022/03/24 01:23:01;;;;;;;4.78;3.47;;;;;;;;;;20918683;28;20536;-60
2022/03/24 01:33:03;;;;;;;4.75;3.60;;;;;;;;;;20917319;28;20072;-60
2022/03/24 01:43:07;;;;;;;9.77;2.88;;;;;;;;;;20916913;28;20040;-58
2022/03/24 01:53:12;;;;;;;5.97;3.17;;;;;;;;;;20915000;28;20053;-58
2022/03/24 02:03:14;;;;;;;6.45;3.47;;;;;;;;;;20914402;28;20055;-59
2022/03/24 02:13:16;;;;;;;4.68;3.40;;;;;;;;;;20914761;28;20397;-57
2022/03/24 02:23:19;;;;;;;5.63;3.05;;;;;;;;;;20912610;28;20616;-57
2022/03/24 02:33:22;;;;;;;5.85;2.70;;;;;;;;;;20912814;28;20044;-57
2022/03/24 02:43:25;;;;;;;5.57;2.90;;;;;;;;;;20912669;28;20052;-59
2022/03/24 02:53:30;;;;;;;3.67;3.03;;;;;;;;;;20911872;28;20128;-58
2022/03/24 03:03:41;;;;;;;4.78;2.90;;;;;;;;;;20927970;28;20071;-59
2022/03/24 03:13:48;;;;;;;3.85;2.83;;;;;;;;;;20928263;28;20444;-57
2022/03/24 03:23:55;;;;;;;5.68;3.65;;;;;;;;;;20927413;28;20057;-57
2022/03/24 03:33:59;;;;;;;4.80;3.20;;;;;;;;;;20925795;28;20047;-57
2022/03/24 03:44:03;;;;;;;5.32;2.83;;;;;;;;;;20925689;28;20408;-57
2022/03/24 03:54:10;;;;;;;4.80;3.22;;;;;;;;;;20924989;28;20048;-58
2022/03/24 04:04:13;;;;;;;6.95;3.35;;;;;;;;;;20923338;28;20056;-56
2022/03/24 04:14:16;;;;;;;8.48;3.13;;;;;;;;;;20921213;28;20075;-60
2022/03/24 04:24:18;;;;;;;6.63;2.72;;;;;;;;;;20922379;28;20095;-56
2022/03/24 04:34:21;;;;;;;7.90;3.28;;;;;;;;;;20922192;28;20105;-59
2022/03/24 04:44:25;;;;;;;5.40;2.78;;;;;;;;;;20921169;28;20401;-58
2022/03/24 04:54:27;;;;;;;5.25;2.88;;;;;;;;;;20920312;28;20045;-59
2022/03/24 05:04:30;;;;;;;3.45;2.80;;;;;;;;;;20919451;28;20049;-57
2022/03/24 05:14:33;;;;;;;3.33;2.33;;;;;;;;;;20918570;28;20045;-59
2022/03/24 05:24:37;;;;;;;4.50;2.85;;;;;;;;;;20917511;28;20143;-59
2022/03/24 05:34:40;;;;;;;4.55;2.90;;;;;;;;;;20917878;28;20107;-61
2022/03/24 05:44:42;;;;;;;4.65;2.58;;;;;;;;;;20916297;28;20052;-57
2022/03/24 05:54:47;;;;;;;5.10;2.40;;;;;;;;;;20916111;28;20102;-59
2022/03/24 06:04:49;;;;;;;3.75;2.20;;;;;;;;;;20914749;28;20087;-59
2022/03/24 06:14:51;;;;;;;4.35;2.50;;;;;;;;;;20914926;28;20483;-59
2022/03/24 06:24:54;;;;;;;4.50;2.55;;;;;;;;;;20912991;28;20144;-59
2022/03/24 06:34:56;;;;;;;4.22;2.78;;;;;;;;;;20911852;28;20045;-58
2022/03/24 06:44:58;;;;;;;5.55;3.88;;;;;;;;;;20911997;28;20053;-59
2022/03/24 06:55:00;;;;;;;5.03;2.42;;;;;;;;;;20911511;28;20049;-59
2022/03/24 07:05:02;;;;;;;3.97;2.55;;;;;;;;;;20911583;28;20080;-59
2022/03/24 07:15:10;;;;;;;3.20;2.53;;;;;;;;;;20910581;28;20417;-59
2022/03/24 07:25:12;;;;;;;4.50;2.75;;;;;;;;;;20910633;28;20143;-57
2022/03/24 07:35:14;;;;;;;5.60;3.15;;;;;;;;;;20910787;28;20049;-59
2022/03/24 07:45:17;;;;;;;6.40;2.70;;;;;;;;;;20916279;28;20080;-58
2022/03/24 07:55:19;;;;;;;6.03;3.63;;;;;;;;;;20938983;28;20135;-58
2022/03/24 08:05:22;;;;;;;6.07;3.03;;;;;;;;;;20924020;28;20135;-57
2022/03/24 08:15:24;;;;;;;4.95;3.15;;;;;;;;;;20923301;28;20052;-59
2022/03/24 08:25:26;;;;;;;4.47;3.28;;;;;;;;;;20922341;28;20053;-58
2022/03/24 08:35:28;;;;;;;7.97;3.10;;;;;;;;;;20922109;28;20052;-56
2022/03/24 08:45:30;;;;;;;5.45;3.35;;;;;;;;;;20920598;28;20045;-57
2022/03/24 08:55:32;;;;;;;6.97;3.15;;;;;;;;;;20919076;28;20107;-57
2022/03/24 09:05:34;;;;;;;7.13;3.00;;;;;;;;;;20919592;28;20053;-55
2022/03/24 09:15:36;;;;;;;6.60;3.90;;;;;;;;;;20917679;28;20057;-58
2022/03/24 09:25:39;;;;;;;6.53;3.03;;;;;;;;;;20917742;28;20064;-57
2022/03/24 09:35:41;;;;;;;6.10;2.75;;;;;;;;;;20917578;28;20439;-61
2022/03/24 09:45:43;;;;;;;5.75;3.25;;;;;;;;;;20914255;28;20405;-59
2022/03/24 09:55:46;;;;;;;5.03;3.10;;;;;;;;;;20915160;28;20064;-57
2022/03/24 10:06:04;;;;;;;4.97;2.78;;;;;;;;;;20914315;28;20050;-58
2022/03/24 10:16:06;;;;;;;6.05;2.95;;;;;;;;;;20913609;28;20086;-58
2022/03/24 10:26:08;;;;;;;6.35;4.22;;;;;;;;;;20912626;28;20052;-57
2022/03/24 10:36:15;;;;;;;6.25;3.35;;;;;;;;;;20914235;28;20131;-59
2022/03/24 10:46:18;;;;;;;3.75;2.75;;;;;;;;;;20911084;28;20132;-57
2022/03/24 10:56:29;;;;;;;5.28;2.60;;;;;;;;;;20912171;28;20091;-56
2022/03/24 11:06:32;;;;;;;5.25;2.80;;;;;;;;;;20908570;28;20053;-56
2022/03/24 11:16:34;;;;;;;7.15;2.78;;;;;;;;;;20876824;28;20489;-57
2022/03/24 11:26:36;;;;;;;4.93;2.50;;;;;;;;;;20892917;28;20102;-57
2022/03/24 11:36:37;;;;;;;4.57;2.70;;;;;;;;;;20924219;28;20064;-59
2022/03/24 11:46:45;;;;;;;5.50;3.20;;;;;;;;;;20925457;28;20055;-57
2022/03/24 11:56:47;;;;;;;4.03;2.70;;;;;;;;;;20884088;28;20053;-57
2022/03/24 12:06:51;;;;;;;6.45;3.08;;;;;;;;;;20906600;28;20049;-55
2022/03/24 12:16:53;;;;;;;4.70;2.80;;;;;;;;;;20876845;28;20056;-56
2022/03/24 12:26:56;;;;;;;3.63;2.45;;;;;;;;;;20840265;28;20489;-55
2022/03/24 12:37:00;;;;;;;4.25;2.35;;;;;;;;;;20836340;28;20046;-57
2022/03/24 12:47:02;;;;;;;4.03;1.95;;;;;;;;;;20836549;28;20394;-57
2022/03/24 12:57:22;;;;;;;3.45;2.05;;;;;;;;;;20836854;28;20049;-58
2022/03/24 13:07:26;;;;;;;4.82;2.40;;;;;;;;;;20837108;28;20493;-56
2022/03/24 13:17:29;;;;;;;3.75;2.55;;;;;;;;;;20835552;28;20057;-57
2022/03/24 13:27:32;;;;;;;3.90;2.70;;;;;;;;;;20834826;28;20057;-56
2022/03/24 13:37:39;;;;;;;12.52;5.53;;;;;;;;;;20831880;28;20049;-58
2022/03/24 13:47:50;;;;;;;5.53;2.70;;;;;;;;;;20832681;28;20045;-59
2022/03/24 13:57:59;;;;;;;6.88;4.45;;;;;;;;;;20831158;28;20049;-57
2022/03/24 14:08:01;;;;;;;6.05;3.22;;;;;;;;;;20830789;28;20061;-56
2022/03/24 14:18:12;;;;;;;5.78;3.60;;;;;;;;;;20831014;28;20106;-56
2022/03/24 14:28:29;;;;;;;5.60;3.20;;;;;;;;;;20829863;28;20064;-56
2022/03/24 14:38:31;;;;;;;6.93;3.55;;;;;;;;;;20829425;28;20378;-56
2022/03/24 14:48:34;;;;;;;5.38;4.07;;;;;;;;;;20829013;28;20486;-57
2022/03/24 14:58:36;;;;;;;6.53;3.50;;;;;;;;;;20828313;28;20049;-56
2022/03/24 15:08:38;;;;;;;5.07;2.85;;;;;;;;;;20828578;28;20092;-56
2022/03/24 15:18:41;;;;;;;5.15;3.22;;;;;;;;;;20829088;28;20080;-56
2022/03/24 15:28:42;;;;;;;6.38;3.22;;;;;;;;;;20828023;28;20136;-57
2022/03/24 15:38:43;;;;;;;7.13;3.53;;;;;;;;;;20827143;28;20413;-55
2022/03/24 15:48:45;;;;;;;3.75;2.60;;;;;;;;;;20827806;28;20086;-56
2022/03/24 15:58:47;;;;;;;5.15;2.92;;;;;;;;;;20827678;28;20049;-56
2022/03/24 16:08:49;;;;;;;5.43;3.40;;;;;;;;;;20838980;28;20109;-57
2022/03/24 16:18:50;;;;;;;5.68;3.33;;;;;;;;;;20922798;28;20401;-59
2022/03/24 16:28:52;;;;;;;6.50;2.95;;;;;;;;;;20923096;28;20388;-58
2022/03/24 16:38:54;;;;;;;8.15;3.67;;;;;;;;;;20920803;28;20084;-57
2022/03/24 16:48:56;;;;;;;6.88;3.25;;;;;;;;;;20919428;28;20045;-64
2022/03/24 16:58:58;;;;;;;9.50;4.40;;;;;;;;;;20918829;28;20433;-58
2022/03/24 17:09:01;;;;;;;13.20;4.63;;;;;;;;;;20918138;28;20444;-55
2022/03/24 17:19:04;;;;;;;11.05;6.78;;;;;;;;;;20917482;28;20057;-59
2022/03/24 17:29:06;;;;;;;13.20;8.27;;;;;;;;;;20917534;28;20053;-56
2022/03/24 17:39:12;;;;;;;17.33;9.48;;;;;;;;;;20916443;28;20080;-58
2022/03/24 17:49:14;;;;;;;9.02;5.57;;;;;;;;;;20915765;28;20057;-56
2022/03/24 17:59:16;;;;;;;11.05;6.00;;;;;;;;;;20915134;28;20044;-57
2022/03/24 18:09:19;;;;;;;10.82;6.40;;;;;;;;;;20914854;28;20167;-58
2022/03/24 18:19:20;;;;;;;13.05;4.00;;;;;;;;;;20914756;28;20052;-57
2022/03/24 18:29:23;;;;;;;11.35;2.88;;;;;;;;;;20913505;28;20408;-57
2022/03/24 18:39:25;;;;;;;9.45;3.92;;;;;;;;;;20912812;28;20405;-57
2022/03/24 18:49:27;;;;;;;11.23;3.35;;;;;;;;;;20910965;28;20059;-57
2022/03/24 18:59:29;;;;;;;6.75;2.15;;;;;;;;;;20910485;28;20057;-57
2022/03/24 19:09:31;;;;;;;9.27;3.20;;;;;;;;;;20910632;28;20051;-59
2022/03/24 19:19:33;;;;;;;7.30;3.35;;;;;;;;;;20909393;28;20057;-60
2022/03/24 19:29:36;;;;;;;9.00;2.30;;;;;;;;;;20909825;28;20455;-58
2022/03/24 19:39:38;;;;;;;10.35;3.25;;;;;;;;;;20913874;28;20634;-57
2022/03/24 19:49:42;;;;;;;8.20;3.65;;;;;;;;;;20924933;28;20048;-60
2022/03/24 19:59:44;;;;;;;12.25;5.13;;;;;;;;;;20924088;28;20057;-58
2022/03/24 20:09:47;;;;;;;23.08;12.55;;;;;;;;;;20924194;28;20049;-56
2022/03/24 20:19:50;;;;;;;18.63;8.52;;;;;;;;;;20923613;28;20092;-59
2022/03/24 20:29:52;;;;;;;13.75;8.68;;;;;;;;;;20922293;28;20500;-59
2022/03/24 20:39:56;;;;;;;27.38;13.75;;;;;;;;;;20921420;28;20049;-60
2022/03/24 20:49:58;;;;;;;13.07;7.53;;;;;;;;;;20919636;28;20049;-60
2022/03/24 21:00:01;;;;;;;10.05;4.85;;;;;;;;;;20920685;28;20052;-59
2022/03/24 21:10:03;;;;;;;11.63;4.57;;;;;;;;;;20920493;28;20085;-57
2022/03/24 21:20:06;;;;;;;14.40;8.82;;;;;;;;;;20919440;28;20557;-58
2022/03/24 21:30:11;;;;;;;14.70;7.03;;;;;;;;;;20917517;28;20132;-58
2022/03/24 21:40:13;;;;;;;14.10;7.03;;;;;;;;;;20916933;28;20409;-60
2022/03/24 21:50:17;;;;;;;14.32;5.80;;;;;;;;;;20916370;28;20055;-57
2022/03/24 22:00:19;;;;;;;11.23;5.00;;;;;;;;;;20915127;28;20044;-61
2022/03/24 22:10:21;;;;;;;9.95;4.40;;;;;;;;;;20913772;28;20049;-59
2022/03/24 22:20:23;;;;;;;11.48;4.07;;;;;;;;;;20913856;28;20049;-57
2022/03/24 22:30:26;;;;;;;12.93;5.25;;;;;;;;;;20914854;28;20496;-57
2022/03/24 22:40:28;;;;;;;9.52;3.75;;;;;;;;;;20912606;28;20457;-57
2022/03/24 22:50:30;;;;;;;12.23;4.35;;;;;;;;;;20927271;28;20044;-61
2022/03/24 23:00:34;;;;;;;8.55;2.88;;;;;;;;;;20913868;28;20451;-60
2022/03/24 23:10:37;;;;;;;9.80;3.50;;;;;;;;;;20913537;28;20053;-57
2022/03/24 23:20:39;;;;;;;8.13;3.50;;;;;;;;;;20926375;28;20413;-56
2022/03/24 23:30:42;;;;;;;8.90;3.00;;;;;;;;;;20927854;28;20053;-58
2022/03/24 23:40:44;;;;;;;5.93;2.80;;;;;;;;;;20927166;28;20443;-59
2022/03/24 23:50:46;;;;;;;3.78;2.38;;;;;;;;;;20926363;28;20056;-58
